sensor_id;sensor_type;location;lat;lon;timestamp;P1;durP1;ratioP1;P2;durP2;ratioP2
55732;SDS011;41637;52.364;9.910;2023-08-06T00:01:47;12.60;;;5.20;;
55732;SDS011;41637;52.364;9.910;2023-08-06T00:04:13;12.90;;;5.30;;
55732;SDS011;41637;52.364;9.910;2023-08-06T00:06:43;14.00;;;5.80;;
55732;SDS011;41637;52.364;9.910;2023-08-06T00:09:10;12.80;;;5.50;;
55732;SDS011;41637;52.364;9.910;2023-08-06T00:11:37;13.20;;;5.60;;
55732;SDS011;41637;52.364;9.910;2023-08-06T00:14:04;14.00;;;5.70;;
55732;SDS011;41637;52.364;9.910;2023-08-06T00:16:31;13.10;;;5.70;;
55732;SDS011;41637;52.364;9.910;2023-08-06T00:18:58;14.80;;;6.00;;
55732;SDS011;41637;52.364;9.910;2023-08-06T00:21:25;14.20;;;6.30;;
55732;SDS011;41637;52.364;9.910;2023-08-06T00:23:52;14.20;;;6.00;;
55732;SDS011;41637;52.364;9.910;2023-08-06T00:26:19;12.40;;;6.40;;
55732;SDS011;41637;52.364;9.910;2023-08-06T00:28:46;14.50;;;6.80;;
55732;SDS011;41637;52.364;9.910;2023-08-06T00:31:13;14.40;;;6.50;;
55732;SDS011;41637;52.364;9.910;2023-08-06T00:33:40;15.30;;;6.60;;
55732;SDS011;41637;52.364;9.910;2023-08-06T00:36:06;15.00;;;6.10;;
55732;SDS011;41637;52.364;9.910;2023-08-06T00:38:33;12.70;;;6.50;;
55732;SDS011;41637;52.364;9.910;2023-08-06T00:41:00;14.90;;;6.50;;
55732;SDS011;41637;52.364;9.910;2023-08-06T00:43:27;15.40;;;7.10;;
55732;SDS011;41637;52.364;9.910;2023-08-06T00:45:53;20.60;;;7.30;;
55732;SDS011;41637;52.364;9.910;2023-08-06T00:48:21;15.10;;;7.10;;
55732;SDS011;41637;52.364;9.910;2023-08-06T00:50:48;19.90;;;8.00;;
55732;SDS011;41637;52.364;9.910;2023-08-06T00:53:15;16.10;;;7.40;;
55732;SDS011;41637;52.364;9.910;2023-08-06T00:55:43;16.90;;;7.40;;
55732;SDS011;41637;52.364;9.910;2023-08-06T00:58:11;14.50;;;6.90;;
55732;SDS011;41637;52.364;9.910;2023-08-06T01:00:38;16.70;;;6.70;;
55732;SDS011;41637;52.364;9.910;2023-08-06T01:03:05;17.30;;;7.40;;
55732;SDS011;41637;52.364;9.910;2023-08-06T01:05:32;16.20;;;6.80;;
55732;SDS011;41637;52.364;9.910;2023-08-06T01:08:43;16.90;;;7.10;;
55732;SDS011;41637;52.364;9.910;2023-08-06T01:17:23;17.90;;;7.80;;
55732;SDS011;41637;52.364;9.910;2023-08-06T01:19:50;17.30;;;7.50;;
55732;SDS011;41637;52.364;9.910;2023-08-06T01:22:17;15.50;;;7.40;;
55732;SDS011;41637;52.364;9.910;2023-08-06T01:24:46;18.30;;;7.80;;
55732;SDS011;41637;52.364;9.910;2023-08-06T01:27:17;16.90;;;8.00;;
55732;SDS011;41637;52.364;9.910;2023-08-06T01:30:06;19.70;;;7.90;;
55732;SDS011;41637;52.364;9.910;2023-08-06T01:32:34;22.20;;;8.10;;
55732;SDS011;41637;52.364;9.910;2023-08-06T01:35:04;23.50;;;8.20;;
55732;SDS011;41637;52.364;9.910;2023-08-06T01:37:31;20.10;;;8.20;;
55732;SDS011;41637;52.364;9.910;2023-08-06T01:39:59;23.80;;;8.60;;
55732;SDS011;41637;52.364;9.910;2023-08-06T01:42:26;19.80;;;8.60;;
55732;SDS011;41637;52.364;9.910;2023-08-06T01:44:52;23.30;;;9.00;;
55732;SDS011;41637;52.364;9.910;2023-08-06T01:47:19;21.10;;;8.40;;
55732;SDS011;41637;52.364;9.910;2023-08-06T01:49:46;27.90;;;8.70;;
55732;SDS011;41637;52.364;9.910;2023-08-06T01:52:13;20.80;;;8.30;;
55732;SDS011;41637;52.364;9.910;2023-08-06T01:54:39;24.30;;;8.30;;
55732;SDS011;41637;52.364;9.910;2023-08-06T01:57:06;24.40;;;8.40;;
55732;SDS011;41637;52.364;9.910;2023-08-06T01:59:33;24.10;;;8.50;;
55732;SDS011;41637;52.364;9.910;2023-08-06T02:02:00;26.30;;;8.10;;
55732;SDS011;41637;52.364;9.910;2023-08-06T02:04:28;19.50;;;7.70;;
55732;SDS011;41637;52.364;9.910;2023-08-06T02:06:54;24.00;;;8.30;;
55732;SDS011;41637;52.364;9.910;2023-08-06T02:09:24;25.10;;;8.60;;
55732;SDS011;41637;52.364;9.910;2023-08-06T02:11:51;25.20;;;8.50;;
55732;SDS011;41637;52.364;9.910;2023-08-06T02:14:18;27.50;;;9.40;;
55732;SDS011;41637;52.364;9.910;2023-08-06T02:16:45;25.50;;;9.40;;
55732;SDS011;41637;52.364;9.910;2023-08-06T02:19:12;28.70;;;9.60;;
55732;SDS011;41637;52.364;9.910;2023-08-06T02:21:39;27.00;;;10.00;;
55732;SDS011;41637;52.364;9.910;2023-08-06T02:24:06;30.10;;;9.80;;
55732;SDS011;41637;52.364;9.910;2023-08-06T02:26:33;27.00;;;9.50;;
55732;SDS011;41637;52.364;9.910;2023-08-06T02:29:00;29.10;;;10.00;;
55732;SDS011;41637;52.364;9.910;2023-08-06T02:31:27;25.80;;;9.90;;
55732;SDS011;41637;52.364;9.910;2023-08-06T02:33:54;33.20;;;10.10;;
55732;SDS011;41637;52.364;9.910;2023-08-06T02:36:21;27.60;;;10.10;;
55732;SDS011;41637;52.364;9.910;2023-08-06T02:38:48;29.50;;;10.60;;
55732;SDS011;41637;52.364;9.910;2023-08-06T02:41:15;32.10;;;10.50;;
55732;SDS011;41637;52.364;9.910;2023-08-06T02:43:42;29.80;;;10.40;;
55732;SDS011;41637;52.364;9.910;2023-08-06T02:46:09;32.60;;;11.00;;
55732;SDS011;41637;52.364;9.910;2023-08-06T02:48:36;32.90;;;10.80;;
55732;SDS011;41637;52.364;9.910;2023-08-06T02:51:03;32.30;;;11.80;;
55732;SDS011;41637;52.364;9.910;2023-08-06T02:53:30;34.50;;;11.70;;
55732;SDS011;41637;52.364;9.910;2023-08-06T02:55:58;49.80;;;13.70;;
55732;SDS011;41637;52.364;9.910;2023-08-06T02:58:25;55.30;;;15.30;;
55732;SDS011;41637;52.364;9.910;2023-08-06T03:00:58;57.70;;;15.20;;
55732;SDS011;41637;52.364;9.910;2023-08-06T03:03:33;66.30;;;16.30;;
55732;SDS011;41637;52.364;9.910;2023-08-06T03:06:00;79.50;;;17.90;;
55732;SDS011;41637;52.364;9.910;2023-08-06T03:08:27;78.20;;;17.60;;
55732;SDS011;41637;52.364;9.910;2023-08-06T03:10:54;78.20;;;18.30;;
55732;SDS011;41637;52.364;9.910;2023-08-06T03:13:21;81.70;;;18.20;;
55732;SDS011;41637;52.364;9.910;2023-08-06T03:15:55;86.80;;;18.70;;
55732;SDS011;41637;52.364;9.910;2023-08-06T03:18:23;80.00;;;19.10;;
55732;SDS011;41637;52.364;9.910;2023-08-06T03:20:50;82.50;;;18.60;;
55732;SDS011;41637;52.364;9.910;2023-08-06T03:23:17;83.30;;;18.50;;
55732;SDS011;41637;52.364;9.910;2023-08-06T03:25:44;90.40;;;18.80;;
55732;SDS011;41637;52.364;9.910;2023-08-06T03:28:11;91.80;;;19.80;;
55732;SDS011;41637;52.364;9.910;2023-08-06T03:30:38;92.70;;;19.40;;
55732;SDS011;41637;52.364;9.910;2023-08-06T03:33:05;93.60;;;19.50;;
55732;SDS011;41637;52.364;9.910;2023-08-06T03:35:32;88.30;;;18.90;;
55732;SDS011;41637;52.364;9.910;2023-08-06T03:37:59;90.90;;;18.40;;
55732;SDS011;41637;52.364;9.910;2023-08-06T03:40:25;96.80;;;20.10;;
55732;SDS011;41637;52.364;9.910;2023-08-06T03:42:52;104.10;;;19.70;;
55732;SDS011;41637;52.364;9.910;2023-08-06T03:45:19;92.50;;;18.70;;
55732;SDS011;41637;52.364;9.910;2023-08-06T03:47:46;95.60;;;19.80;;
55732;SDS011;41637;52.364;9.910;2023-08-06T03:50:13;76.60;;;18.10;;
55732;SDS011;41637;52.364;9.910;2023-08-06T03:52:40;85.70;;;18.80;;
55732;SDS011;41637;52.364;9.910;2023-08-06T03:55:07;100.60;;;20.80;;
55732;SDS011;41637;52.364;9.910;2023-08-06T03:57:34;96.20;;;19.00;;
55732;SDS011;41637;52.364;9.910;2023-08-06T04:00:02;110.90;;;21.20;;
55732;SDS011;41637;52.364;9.910;2023-08-06T04:02:30;133.30;;;21.10;;
55732;SDS011;41637;52.364;9.910;2023-08-06T04:04:57;192.30;;;24.20;;
55732;SDS011;41637;52.364;9.910;2023-08-06T04:07:25;153.30;;;20.60;;
55732;SDS011;41637;52.364;9.910;2023-08-06T04:09:56;111.10;;;18.00;;
55732;SDS011;41637;52.364;9.910;2023-08-06T04:12:25;91.90;;;17.20;;
55732;SDS011;41637;52.364;9.910;2023-08-06T04:14:52;84.20;;;17.70;;
55732;SDS011;41637;52.364;9.910;2023-08-06T04:17:19;87.00;;;16.50;;
55732;SDS011;41637;52.364;9.910;2023-08-06T04:19:50;91.90;;;16.70;;
55732;SDS011;41637;52.364;9.910;2023-08-06T04:22:18;81.00;;;15.90;;
55732;SDS011;41637;52.364;9.910;2023-08-06T04:24:46;67.80;;;15.10;;
55732;SDS011;41637;52.364;9.910;2023-08-06T04:27:13;74.40;;;14.80;;
55732;SDS011;41637;52.364;9.910;2023-08-06T04:29:41;54.00;;;13.30;;
55732;SDS011;41637;52.364;9.910;2023-08-06T04:32:09;55.30;;;14.30;;
55732;SDS011;41637;52.364;9.910;2023-08-06T04:34:36;51.40;;;13.50;;
55732;SDS011;41637;52.364;9.910;2023-08-06T04:37:04;51.60;;;13.90;;
55732;SDS011;41637;52.364;9.910;2023-08-06T04:39:31;47.20;;;13.80;;
55732;SDS011;41637;52.364;9.910;2023-08-06T04:41:58;48.80;;;14.00;;
55732;SDS011;41637;52.364;9.910;2023-08-06T04:44:24;44.90;;;13.80;;
55732;SDS011;41637;52.364;9.910;2023-08-06T04:46:51;43.80;;;13.80;;
55732;SDS011;41637;52.364;9.910;2023-08-06T04:49:21;47.00;;;13.60;;
55732;SDS011;41637;52.364;9.910;2023-08-06T04:51:48;51.70;;;14.40;;
55732;SDS011;41637;52.364;9.910;2023-08-06T04:54:15;51.90;;;14.20;;
55732;SDS011;41637;52.364;9.910;2023-08-06T04:56:42;50.30;;;14.40;;
55732;SDS011;41637;52.364;9.910;2023-08-06T04:59:09;47.80;;;13.80;;
55732;SDS011;41637;52.364;9.910;2023-08-06T05:01:36;44.40;;;14.00;;
55732;SDS011;41637;52.364;9.910;2023-08-06T05:04:03;49.90;;;14.00;;
55732;SDS011;41637;52.364;9.910;2023-08-06T05:06:30;48.70;;;14.80;;
55732;SDS011;41637;52.364;9.910;2023-08-06T05:08:57;44.40;;;13.90;;
55732;SDS011;41637;52.364;9.910;2023-08-06T05:11:24;51.20;;;14.70;;
55732;SDS011;41637;52.364;9.910;2023-08-06T05:13:51;45.80;;;14.20;;
55732;SDS011;41637;52.364;9.910;2023-08-06T05:16:17;47.20;;;13.30;;
55732;SDS011;41637;52.364;9.910;2023-08-06T05:18:44;45.50;;;13.50;;
55732;SDS011;41637;52.364;9.910;2023-08-06T05:21:11;40.90;;;13.20;;
55732;SDS011;41637;52.364;9.910;2023-08-06T05:23:39;38.70;;;13.20;;
55732;SDS011;41637;52.364;9.910;2023-08-06T05:26:06;42.20;;;13.30;;
55732;SDS011;41637;52.364;9.910;2023-08-06T05:28:33;37.50;;;12.30;;
55732;SDS011;41637;52.364;9.910;2023-08-06T05:31:04;35.90;;;12.70;;
55732;SDS011;41637;52.364;9.910;2023-08-06T05:33:31;28.20;;;10.90;;
55732;SDS011;41637;52.364;9.910;2023-08-06T05:35:58;26.70;;;10.10;;
55732;SDS011;41637;52.364;9.910;2023-08-06T05:38:25;23.20;;;9.90;;
55732;SDS011;41637;52.364;9.910;2023-08-06T05:40:51;24.90;;;10.00;;
55732;SDS011;41637;52.364;9.910;2023-08-06T05:43:18;22.70;;;9.90;;
55732;SDS011;41637;52.364;9.910;2023-08-06T05:45:45;24.80;;;10.30;;
55732;SDS011;41637;52.364;9.910;2023-08-06T05:48:15;22.90;;;9.80;;
55732;SDS011;41637;52.364;9.910;2023-08-06T05:50:42;24.90;;;9.80;;
55732;SDS011;41637;52.364;9.910;2023-08-06T05:53:08;20.70;;;9.90;;
55732;SDS011;41637;52.364;9.910;2023-08-06T05:55:35;25.30;;;10.20;;
55732;SDS011;41637;52.364;9.910;2023-08-06T05:58:02;23.40;;;9.70;;
55732;SDS011;41637;52.364;9.910;2023-08-06T06:00:29;22.80;;;9.70;;
55732;SDS011;41637;52.364;9.910;2023-08-06T06:02:56;20.00;;;9.40;;
55732;SDS011;41637;52.364;9.910;2023-08-06T06:05:23;20.00;;;9.60;;
55732;SDS011;41637;52.364;9.910;2023-08-06T06:07:50;20.00;;;9.70;;
55732;SDS011;41637;52.364;9.910;2023-08-06T06:10:17;17.60;;;9.10;;
55732;SDS011;41637;52.364;9.910;2023-08-06T06:12:43;17.80;;;9.30;;
55732;SDS011;41637;52.364;9.910;2023-08-06T06:15:10;18.40;;;9.50;;
55732;SDS011;41637;52.364;9.910;2023-08-06T06:17:38;17.10;;;9.30;;
55732;SDS011;41637;52.364;9.910;2023-08-06T06:20:04;16.40;;;8.60;;
55732;SDS011;41637;52.364;9.910;2023-08-06T06:22:32;15.80;;;9.00;;
55732;SDS011;41637;52.364;9.910;2023-08-06T06:24:59;18.50;;;8.30;;
55732;SDS011;41637;52.364;9.910;2023-08-06T06:27:25;12.80;;;8.20;;
55732;SDS011;41637;52.364;9.910;2023-08-06T06:29:53;13.00;;;7.60;;
55732;SDS011;41637;52.364;9.910;2023-08-06T06:32:21;17.10;;;8.00;;
55732;SDS011;41637;52.364;9.910;2023-08-06T06:34:48;16.80;;;7.80;;
55732;SDS011;41637;52.364;9.910;2023-08-06T06:37:15;13.40;;;7.60;;
55732;SDS011;41637;52.364;9.910;2023-08-06T06:39:42;13.50;;;6.70;;
55732;SDS011;41637;52.364;9.910;2023-08-06T06:42:08;10.20;;;6.30;;
55732;SDS011;41637;52.364;9.910;2023-08-06T06:44:35;11.00;;;6.80;;
55732;SDS011;41637;52.364;9.910;2023-08-06T06:47:02;14.10;;;7.10;;
55732;SDS011;41637;52.364;9.910;2023-08-06T06:49:29;12.30;;;6.80;;
55732;SDS011;41637;52.364;9.910;2023-08-06T06:51:56;11.60;;;6.20;;
55732;SDS011;41637;52.364;9.910;2023-08-06T06:54:23;9.70;;;6.10;;
55732;SDS011;41637;52.364;9.910;2023-08-06T06:56:50;10.40;;;6.60;;
55732;SDS011;41637;52.364;9.910;2023-08-06T06:59:17;7.40;;;5.40;;
55732;SDS011;41637;52.364;9.910;2023-08-06T07:01:44;8.20;;;5.10;;
55732;SDS011;41637;52.364;9.910;2023-08-06T07:04:11;7.80;;;4.40;;
55732;SDS011;41637;52.364;9.910;2023-08-06T07:06:38;6.50;;;4.40;;
55732;SDS011;41637;52.364;9.910;2023-08-06T07:09:05;7.00;;;4.20;;
55732;SDS011;41637;52.364;9.910;2023-08-06T07:11:32;6.40;;;4.10;;
55732;SDS011;41637;52.364;9.910;2023-08-06T07:13:58;6.60;;;4.50;;
55732;SDS011;41637;52.364;9.910;2023-08-06T07:16:25;10.30;;;4.70;;
55732;SDS011;41637;52.364;9.910;2023-08-06T07:18:53;4.80;;;4.00;;
55732;SDS011;41637;52.364;9.910;2023-08-06T07:21:20;6.30;;;3.70;;
55732;SDS011;41637;52.364;9.910;2023-08-06T07:23:47;4.70;;;3.40;;
55732;SDS011;41637;52.364;9.910;2023-08-06T07:26:17;5.10;;;3.20;;
55732;SDS011;41637;52.364;9.910;2023-08-06T07:28:44;4.10;;;3.20;;
55732;SDS011;41637;52.364;9.910;2023-08-06T07:31:11;4.80;;;3.30;;
55732;SDS011;41637;52.364;9.910;2023-08-06T07:33:38;4.80;;;2.80;;
55732;SDS011;41637;52.364;9.910;2023-08-06T07:36:09;4.70;;;2.80;;
55732;SDS011;41637;52.364;9.910;2023-08-06T07:38:37;4.50;;;2.90;;
55732;SDS011;41637;52.364;9.910;2023-08-06T07:41:04;3.50;;;2.60;;
55732;SDS011;41637;52.364;9.910;2023-08-06T07:43:31;4.50;;;2.50;;
55732;SDS011;41637;52.364;9.910;2023-08-06T07:45:58;4.60;;;2.70;;
55732;SDS011;41637;52.364;9.910;2023-08-06T07:48:28;3.30;;;2.40;;
55732;SDS011;41637;52.364;9.910;2023-08-06T07:50:55;3.60;;;2.30;;
55732;SDS011;41637;52.364;9.910;2023-08-06T07:53:22;3.40;;;2.50;;
55732;SDS011;41637;52.364;9.910;2023-08-06T07:55:53;4.20;;;2.00;;
55732;SDS011;41637;52.364;9.910;2023-08-06T07:58:20;3.40;;;2.00;;
55732;SDS011;41637;52.364;9.910;2023-08-06T08:00:47;2.40;;;1.90;;
55732;SDS011;41637;52.364;9.910;2023-08-06T08:03:14;4.70;;;1.80;;
55732;SDS011;41637;52.364;9.910;2023-08-06T08:05:42;3.70;;;1.30;;
55732;SDS011;41637;52.364;9.910;2023-08-06T08:08:10;3.30;;;1.40;;
55732;SDS011;41637;52.364;9.910;2023-08-06T08:10:37;2.50;;;1.40;;
55732;SDS011;41637;52.364;9.910;2023-08-06T08:13:04;2.60;;;1.50;;
55732;SDS011;41637;52.364;9.910;2023-08-06T08:15:31;2.60;;;1.60;;
55732;SDS011;41637;52.364;9.910;2023-08-06T08:17:59;2.20;;;1.40;;
55732;SDS011;41637;52.364;9.910;2023-08-06T08:20:26;3.40;;;1.60;;
55732;SDS011;41637;52.364;9.910;2023-08-06T08:22:59;2.30;;;1.60;;
55732;SDS011;41637;52.364;9.910;2023-08-06T08:25:27;3.90;;;1.50;;
55732;SDS011;41637;52.364;9.910;2023-08-06T08:27:56;3.50;;;1.60;;
55732;SDS011;41637;52.364;9.910;2023-08-06T08:30:23;2.50;;;1.70;;
55732;SDS011;41637;52.364;9.910;2023-08-06T08:32:52;3.30;;;1.50;;
55732;SDS011;41637;52.364;9.910;2023-08-06T08:35:19;3.10;;;1.90;;
55732;SDS011;41637;52.364;9.910;2023-08-06T08:37:46;3.80;;;1.60;;
55732;SDS011;41637;52.364;9.910;2023-08-06T08:40:13;3.20;;;1.50;;
55732;SDS011;41637;52.364;9.910;2023-08-06T08:42:41;2.60;;;1.30;;
55732;SDS011;41637;52.364;9.910;2023-08-06T08:45:15;2.70;;;1.50;;
55732;SDS011;41637;52.364;9.910;2023-08-06T08:47:42;1.90;;;1.30;;
55732;SDS011;41637;52.364;9.910;2023-08-06T08:50:14;2.70;;;1.90;;
55732;SDS011;41637;52.364;9.910;2023-08-06T08:52:41;2.30;;;1.60;;
55732;SDS011;41637;52.364;9.910;2023-08-06T08:55:12;3.00;;;1.40;;
55732;SDS011;41637;52.364;9.910;2023-08-06T08:57:41;2.50;;;1.50;;
55732;SDS011;41637;52.364;9.910;2023-08-06T09:00:08;2.10;;;1.50;;
55732;SDS011;41637;52.364;9.910;2023-08-06T09:02:35;3.30;;;1.40;;
55732;SDS011;41637;52.364;9.910;2023-08-06T09:05:04;3.00;;;1.40;;
55732;SDS011;41637;52.364;9.910;2023-08-06T09:07:32;2.80;;;1.40;;
55732;SDS011;41637;52.364;9.910;2023-08-06T09:10:03;2.60;;;1.30;;
55732;SDS011;41637;52.364;9.910;2023-08-06T09:12:31;3.50;;;1.60;;
55732;SDS011;41637;52.364;9.910;2023-08-06T09:14:58;3.40;;;1.60;;
55732;SDS011;41637;52.364;9.910;2023-08-06T09:17:25;2.40;;;1.30;;
55732;SDS011;41637;52.364;9.910;2023-08-06T09:19:52;4.50;;;1.60;;
55732;SDS011;41637;52.364;9.910;2023-08-06T09:22:19;2.60;;;1.30;;
55732;SDS011;41637;52.364;9.910;2023-08-06T09:24:46;3.00;;;1.30;;
55732;SDS011;41637;52.364;9.910;2023-08-06T09:27:13;3.70;;;1.50;;
55732;SDS011;41637;52.364;9.910;2023-08-06T09:29:41;3.30;;;1.60;;
55732;SDS011;41637;52.364;9.910;2023-08-06T09:32:09;2.80;;;1.50;;
55732;SDS011;41637;52.364;9.910;2023-08-06T09:34:38;3.00;;;1.40;;
55732;SDS011;41637;52.364;9.910;2023-08-06T09:37:06;2.00;;;1.30;;
55732;SDS011;41637;52.364;9.910;2023-08-06T09:39:35;3.10;;;1.40;;
55732;SDS011;41637;52.364;9.910;2023-08-06T09:42:02;2.40;;;1.20;;
55732;SDS011;41637;52.364;9.910;2023-08-06T09:44:30;2.60;;;1.20;;
55732;SDS011;41637;52.364;9.910;2023-08-06T09:46:58;2.60;;;1.30;;
55732;SDS011;41637;52.364;9.910;2023-08-06T09:49:27;3.20;;;1.50;;
55732;SDS011;41637;52.364;9.910;2023-08-06T09:51:55;2.50;;;1.30;;
55732;SDS011;41637;52.364;9.910;2023-08-06T09:54:23;2.70;;;1.50;;
55732;SDS011;41637;52.364;9.910;2023-08-06T09:56:56;2.50;;;1.20;;
55732;SDS011;41637;52.364;9.910;2023-08-06T09:59:23;1.70;;;1.10;;
55732;SDS011;41637;52.364;9.910;2023-08-06T10:01:50;3.00;;;1.20;;
55732;SDS011;41637;52.364;9.910;2023-08-06T10:04:19;2.70;;;1.30;;
55732;SDS011;41637;52.364;9.910;2023-08-06T10:06:52;3.80;;;1.20;;
55732;SDS011;41637;52.364;9.910;2023-08-06T10:09:20;2.50;;;1.20;;
55732;SDS011;41637;52.364;9.910;2023-08-06T10:11:49;2.10;;;1.10;;
55732;SDS011;41637;52.364;9.910;2023-08-06T10:14:21;2.40;;;1.10;;
55732;SDS011;41637;52.364;9.910;2023-08-06T10:16:52;2.80;;;1.30;;
55732;SDS011;41637;52.364;9.910;2023-08-06T10:19:20;2.90;;;1.10;;
55732;SDS011;41637;52.364;9.910;2023-08-06T10:24:46;3.80;;;1.40;;
55732;SDS011;41637;52.364;9.910;2023-08-06T10:27:19;2.90;;;1.20;;
55732;SDS011;41637;52.364;9.910;2023-08-06T10:32:56;3.30;;;1.20;;
55732;SDS011;41637;52.364;9.910;2023-08-06T10:38:09;2.60;;;1.10;;
55732;SDS011;41637;52.364;9.910;2023-08-06T10:41:00;2.60;;;1.20;;
55732;SDS011;41637;52.364;9.910;2023-08-06T10:43:35;2.40;;;1.30;;
55732;SDS011;41637;52.364;9.910;2023-08-06T10:46:09;2.50;;;1.10;;
55732;SDS011;41637;52.364;9.910;2023-08-06T10:48:41;2.70;;;1.20;;
55732;SDS011;41637;52.364;9.910;2023-08-06T10:51:12;2.50;;;1.50;;
55732;SDS011;41637;52.364;9.910;2023-08-06T10:53:46;2.10;;;1.20;;
55732;SDS011;41637;52.364;9.910;2023-08-06T10:56:18;3.80;;;1.10;;
55732;SDS011;41637;52.364;9.910;2023-08-06T10:58:49;2.20;;;1.20;;
55732;SDS011;41637;52.364;9.910;2023-08-06T11:01:17;2.20;;;1.30;;
55732;SDS011;41637;52.364;9.910;2023-08-06T11:07:32;2.30;;;1.30;;
55732;SDS011;41637;52.364;9.910;2023-08-06T11:10:10;2.40;;;1.10;;
55732;SDS011;41637;52.364;9.910;2023-08-06T11:12:38;2.70;;;1.20;;
55732;SDS011;41637;52.364;9.910;2023-08-06T11:15:06;3.90;;;1.40;;
55732;SDS011;41637;52.364;9.910;2023-08-06T11:17:33;2.70;;;1.30;;
55732;SDS011;41637;52.364;9.910;2023-08-06T11:20:02;2.50;;;1.40;;
55732;SDS011;41637;52.364;9.910;2023-08-06T11:22:30;3.10;;;1.30;;
55732;SDS011;41637;52.364;9.910;2023-08-06T11:24:57;1.60;;;1.10;;
55732;SDS011;41637;52.364;9.910;2023-08-06T11:27:25;2.60;;;1.20;;
55732;SDS011;41637;52.364;9.910;2023-08-06T11:29:52;2.50;;;1.40;;
55732;SDS011;41637;52.364;9.910;2023-08-06T11:32:19;3.30;;;1.30;;
55732;SDS011;41637;52.364;9.910;2023-08-06T11:34:46;1.90;;;1.30;;
55732;SDS011;41637;52.364;9.910;2023-08-06T11:37:12;2.60;;;1.40;;
55732;SDS011;41637;52.364;9.910;2023-08-06T11:39:39;1.80;;;1.30;;
55732;SDS011;41637;52.364;9.910;2023-08-06T11:42:12;3.40;;;1.50;;
55732;SDS011;41637;52.364;9.910;2023-08-06T11:44:40;7.30;;;6.60;;
55732;SDS011;41637;52.364;9.910;2023-08-06T11:47:12;2.90;;;1.70;;
55732;SDS011;41637;52.364;9.910;2023-08-06T11:49:40;2.40;;;1.20;;
55732;SDS011;41637;52.364;9.910;2023-08-06T11:52:08;3.90;;;1.30;;
55732;SDS011;41637;52.364;9.910;2023-08-06T11:54:47;2.70;;;1.50;;
55732;SDS011;41637;52.364;9.910;2023-08-06T11:57:15;2.10;;;1.40;;
55732;SDS011;41637;52.364;9.910;2023-08-06T11:59:43;2.30;;;1.40;;
55732;SDS011;41637;52.364;9.910;2023-08-06T12:02:11;10.10;;;5.70;;
55732;SDS011;41637;52.364;9.910;2023-08-06T12:04:58;2.60;;;1.60;;
55732;SDS011;41637;52.364;9.910;2023-08-06T12:07:29;3.70;;;1.60;;
55732;SDS011;41637;52.364;9.910;2023-08-06T12:09:58;2.00;;;1.20;;
55732;SDS011;41637;52.364;9.910;2023-08-06T12:12:25;2.20;;;1.50;;
55732;SDS011;41637;52.364;9.910;2023-08-06T12:14:52;1.90;;;1.30;;
55732;SDS011;41637;52.364;9.910;2023-08-06T12:17:19;3.60;;;1.50;;
55732;SDS011;41637;52.364;9.910;2023-08-06T12:19:45;2.90;;;1.40;;
55732;SDS011;41637;52.364;9.910;2023-08-06T12:22:13;2.20;;;1.20;;
55732;SDS011;41637;52.364;9.910;2023-08-06T12:24:44;2.30;;;1.10;;
55732;SDS011;41637;52.364;9.910;2023-08-06T12:27:12;2.80;;;1.30;;
55732;SDS011;41637;52.364;9.910;2023-08-06T12:29:43;2.60;;;1.20;;
55732;SDS011;41637;52.364;9.910;2023-08-06T12:32:10;3.30;;;1.40;;
55732;SDS011;41637;52.364;9.910;2023-08-06T12:34:38;2.10;;;1.20;;
55732;SDS011;41637;52.364;9.910;2023-08-06T12:37:18;2.80;;;1.40;;
55732;SDS011;41637;52.364;9.910;2023-08-06T12:39:46;1.80;;;1.20;;
55732;SDS011;41637;52.364;9.910;2023-08-06T12:42:13;2.10;;;1.20;;
55732;SDS011;41637;52.364;9.910;2023-08-06T12:44:39;2.40;;;1.30;;
55732;SDS011;41637;52.364;9.910;2023-08-06T12:47:06;2.20;;;1.30;;
55732;SDS011;41637;52.364;9.910;2023-08-06T12:49:34;3.30;;;1.30;;
55732;SDS011;41637;52.364;9.910;2023-08-06T12:52:01;2.50;;;1.30;;
55732;SDS011;41637;52.364;9.910;2023-08-06T12:54:28;2.60;;;1.20;;
55732;SDS011;41637;52.364;9.910;2023-08-06T12:56:55;2.80;;;1.50;;
55732;SDS011;41637;52.364;9.910;2023-08-06T12:59:22;3.30;;;1.60;;
55732;SDS011;41637;52.364;9.910;2023-08-06T13:01:48;2.80;;;1.60;;
55732;SDS011;41637;52.364;9.910;2023-08-06T13:04:16;2.50;;;1.20;;
55732;SDS011;41637;52.364;9.910;2023-08-06T13:06:48;2.80;;;1.40;;
55732;SDS011;41637;52.364;9.910;2023-08-06T13:09:15;2.50;;;1.30;;
55732;SDS011;41637;52.364;9.910;2023-08-06T13:11:42;3.10;;;1.40;;
55732;SDS011;41637;52.364;9.910;2023-08-06T13:14:13;2.20;;;1.20;;
55732;SDS011;41637;52.364;9.910;2023-08-06T13:16:41;2.10;;;1.30;;
55732;SDS011;41637;52.364;9.910;2023-08-06T13:19:09;2.30;;;1.30;;
55732;SDS011;41637;52.364;9.910;2023-08-06T13:24:06;1.80;;;1.00;;
55732;SDS011;41637;52.364;9.910;2023-08-06T13:26:34;2.80;;;1.20;;
55732;SDS011;41637;52.364;9.910;2023-08-06T13:29:01;2.10;;;1.10;;
55732;SDS011;41637;52.364;9.910;2023-08-06T13:31:28;2.60;;;1.10;;
55732;SDS011;41637;52.364;9.910;2023-08-06T13:33:56;1.60;;;1.00;;
55732;SDS011;41637;52.364;9.910;2023-08-06T13:36:25;2.40;;;1.10;;
55732;SDS011;41637;52.364;9.910;2023-08-06T13:38:53;1.80;;;1.00;;
55732;SDS011;41637;52.364;9.910;2023-08-06T13:41:19;1.40;;;0.80;;
55732;SDS011;41637;52.364;9.910;2023-08-06T13:43:46;2.20;;;1.10;;
55732;SDS011;41637;52.364;9.910;2023-08-06T13:46:13;3.00;;;1.10;;
55732;SDS011;41637;52.364;9.910;2023-08-06T13:48:44;1.90;;;1.10;;
55732;SDS011;41637;52.364;9.910;2023-08-06T13:51:12;3.10;;;1.20;;
55732;SDS011;41637;52.364;9.910;2023-08-06T13:53:40;3.20;;;1.30;;
55732;SDS011;41637;52.364;9.910;2023-08-06T13:56:07;2.00;;;1.30;;
55732;SDS011;41637;52.364;9.910;2023-08-06T13:58:38;2.10;;;1.20;;
55732;SDS011;41637;52.364;9.910;2023-08-06T14:01:06;2.90;;;1.10;;
55732;SDS011;41637;52.364;9.910;2023-08-06T14:03:33;3.70;;;1.30;;
55732;SDS011;41637;52.364;9.910;2023-08-06T14:06:00;2.30;;;1.40;;
55732;SDS011;41637;52.364;9.910;2023-08-06T14:08:27;2.40;;;1.10;;
55732;SDS011;41637;52.364;9.910;2023-08-06T14:10:54;2.30;;;1.20;;
55732;SDS011;41637;52.364;9.910;2023-08-06T14:13:21;1.70;;;1.00;;
55732;SDS011;41637;52.364;9.910;2023-08-06T14:15:49;1.70;;;0.90;;
55732;SDS011;41637;52.364;9.910;2023-08-06T14:18:16;1.90;;;0.90;;
55732;SDS011;41637;52.364;9.910;2023-08-06T14:20:44;2.20;;;0.90;;
55732;SDS011;41637;52.364;9.910;2023-08-06T14:23:10;2.60;;;1.00;;
55732;SDS011;41637;52.364;9.910;2023-08-06T14:25:38;2.40;;;1.00;;
55732;SDS011;41637;52.364;9.910;2023-08-06T14:28:05;1.70;;;0.90;;
55732;SDS011;41637;52.364;9.910;2023-08-06T14:30:33;1.60;;;0.90;;
55732;SDS011;41637;52.364;9.910;2023-08-06T14:33:00;1.60;;;0.90;;
55732;SDS011;41637;52.364;9.910;2023-08-06T14:35:46;1.30;;;0.70;;
55732;SDS011;41637;52.364;9.910;2023-08-06T14:38:13;1.70;;;1.10;;
55732;SDS011;41637;52.364;9.910;2023-08-06T14:40:40;1.70;;;0.90;;
55732;SDS011;41637;52.364;9.910;2023-08-06T14:43:06;2.00;;;1.10;;
55732;SDS011;41637;52.364;9.910;2023-08-06T14:45:35;1.70;;;1.00;;
55732;SDS011;41637;52.364;9.910;2023-08-06T14:48:04;1.50;;;0.90;;
55732;SDS011;41637;52.364;9.910;2023-08-06T14:50:31;2.00;;;1.00;;
55732;SDS011;41637;52.364;9.910;2023-08-06T14:52:58;1.50;;;0.90;;
55732;SDS011;41637;52.364;9.910;2023-08-06T14:55:30;3.40;;;0.90;;
55732;SDS011;41637;52.364;9.910;2023-08-06T14:57:58;1.60;;;0.90;;
55732;SDS011;41637;52.364;9.910;2023-08-06T15:00:25;1.80;;;1.00;;
55732;SDS011;41637;52.364;9.910;2023-08-06T15:02:51;2.10;;;0.90;;
55732;SDS011;41637;52.364;9.910;2023-08-06T15:05:18;7.00;;;1.30;;